Tuvalu — DC8992 — position and weather

sailwx.info

Track history (hours):
 
Tides and Currents Weather Stations Pressure Air Temp Water Temp Dewpoint Dewpoint Depression Visibility Wind Speed Wind Dir Waves Ship Positions

Tuvalu

Last reported at 2018-Apr-22 02:05 UTC. Time now 2018-May-24 14:06 UTC.
Position N 18°09' W 063°17'.
Warning: this ship's position is 32 days out of date.

Length 11 m.

Type: Sailing vessel. MMSI: 211725990.

Date/timePositionNaut miles runAvg speedWind from/ knotsBaromVisibWave heightAir tempDewpointWater temp
2018-Apr-22 02:05N 18°09' W 063°17'1 5.7
2018-Apr-22 01:52N 18°09' W 063°16'3 5.4
2018-Apr-22 01:23N 18°08' W 063°13'2 5.2
2018-Apr-22 01:00N 18°07' W 063°11'3 5.3
2018-Apr-22 00:30N 18°06' W 063°08'2 4.7
2018-Apr-22 00:00N 18°05' W 063°06'  
2018-Apr-17 22:57N 18°04' W 063°05'1 1.2
2018-Apr-17 22:30N 18°04' W 063°06'2 4.1
2018-Apr-17 22:00N 18°05' W 063°08'2 3.9
2018-Apr-17 21:30N 18°04' W 063°09'2 5.0
2018-Apr-17 21:00N 18°02' W 063°08'3 5.6
2018-Apr-17 20:30N 18°01' W 063°05'2 0.1
2018-Apr-17 04:33N 18°00' W 063°03'0 3.1
2018-Apr-17 04:29N 18°00' W 063°03'2 5.0
2018-Apr-17 04:00N 17°59' W 063°01'2 4.5
2018-Apr-17 03:30N 17°57' W 062°59'46 5.4
2018-Apr-16 18:59N 17°31' W 062°19'4 5.8
2018-Apr-16 18:13N 17°28' W 062°16'1 5.3
2018-Apr-16 17:59N 17°28' W 062°15'3 4.9
2018-Apr-16 17:28N 17°26' W 062°13'2 5.0
2018-Apr-16 17:00N 17°25' W 062°11'3 5.0
2018-Apr-16 16:29N 17°23' W 062°09'3 5.7
2018-Apr-16 16:00N 17°21' W 062°07'3 5.7
2018-Apr-16 15:30N 17°19' W 062°05'3 6.0
2018-Apr-16 15:00N 17°17' W 062°02'3 6.5
2018-Apr-16 14:30N 17°15' W 061°60'3 6.1
2018-Apr-16 14:00N 17°13' W 061°58'3 6.3
2018-Apr-16 13:30N 17°10' W 061°55'3 5.2
2018-Apr-16 13:00N 17°08' W 061°54'1 0.1
2018-Apr-15 23:54N 17°08' W 061°53'0 0.0
2018-Apr-15 23:30N 17°08' W 061°53'0 0.0
2018-Apr-15 22:57N 17°08' W 061°53'0 0.0
2018-Apr-15 22:30N 17°08' W 061°53'0 0.0
2018-Apr-15 22:00N 17°08' W 061°53'0 0.0
2018-Apr-15 21:30N 17°08' W 061°53'0 0.0
2018-Apr-15 21:00N 17°08' W 061°53'0 0.0
2018-Apr-15 19:33N 17°08' W 061°53'0 0.0
2018-Apr-15 19:30N 17°08' W 061°53'0 0.0
2018-Apr-15 19:00N 17°08' W 061°53'0 0.0
2018-Apr-15 18:30N 17°08' W 061°53'0 0.0
2018-Apr-15 18:00N 17°08' W 061°53'0 0.0
2018-Apr-15 17:30N 17°08' W 061°53'0 0.0
2018-Apr-15 17:00N 17°08' W 061°53'0 0.0
2018-Apr-15 16:30N 17°08' W 061°53'0 0.0
2018-Apr-15 16:00N 17°08' W 061°53'0 0.0
2018-Apr-15 15:30N 17°08' W 061°53'0 0.0
2018-Apr-13 23:49N 17°08' W 061°53'0 0.8
2018-Apr-13 23:30N 17°08' W 061°53'2 0.6
2018-Apr-13 19:14N 17°07' W 061°51'0 0.0
2018-Apr-13 18:59N 17°07' W 061°51'0 0.0
2018-Apr-13 18:29N 17°07' W 061°51'0 0.0
2018-Apr-13 17:59N 17°07' W 061°51'0 0.0
2018-Apr-13 17:29N 17°07' W 061°51'2 3.6
2018-Apr-13 17:00N 17°08' W 061°52'1 0.0
2018-Apr-12 21:05N 17°08' W 061°53'0 0.1
2018-Apr-12 21:00N 17°08' W 061°53'2 3.5
2018-Apr-12 20:30N 17°06' W 061°55'2 4.0
2018-Apr-12 20:00N 17°05' W 061°54'  
Track history (hours):
 
Tides and Currents Weather Stations Pressure Air Temp Water Temp Dewpoint Dewpoint Depression Visibility Wind Speed Wind Dir Waves Ship Positions

Tuvalu

Last reported at 2018-Apr-22 02:05 UTC. Time now 2018-May-24 14:06 UTC.
Position N 18°09' W 063°17'.
Warning: this ship's position is 32 days out of date.

Length 11 m.

Type: Sailing vessel. MMSI: 211725990.

Date/timePositionNaut miles runAvg speedWind from/ knotsBaromVisibWave heightAir tempDewpointWater temp
2018-Apr-22 02:05N 18°09' W 063°17'1 5.7
2018-Apr-22 01:52N 18°09' W 063°16'3 5.4
2018-Apr-22 01:23N 18°08' W 063°13'2 5.2
2018-Apr-22 01:00N 18°07' W 063°11'3 5.3
2018-Apr-22 00:30N 18°06' W 063°08'2 4.7
2018-Apr-22 00:00N 18°05' W 063°06'  
2018-Apr-17 22:57N 18°04' W 063°05'1 1.2
2018-Apr-17 22:30N 18°04' W 063°06'2 4.1
2018-Apr-17 22:00N 18°05' W 063°08'2 3.9
2018-Apr-17 21:30N 18°04' W 063°09'2 5.0
2018-Apr-17 21:00N 18°02' W 063°08'3 5.6
2018-Apr-17 20:30N 18°01' W 063°05'2 0.1
2018-Apr-17 04:33N 18°00' W 063°03'0 3.1
2018-Apr-17 04:29N 18°00' W 063°03'2 5.0
2018-Apr-17 04:00N 17°59' W 063°01'2 4.5
2018-Apr-17 03:30N 17°57' W 062°59'46 5.4
2018-Apr-16 18:59N 17°31' W 062°19'4 5.8
2018-Apr-16 18:13N 17°28' W 062°16'1 5.3
2018-Apr-16 17:59N 17°28' W 062°15'3 4.9
2018-Apr-16 17:28N 17°26' W 062°13'2 5.0
2018-Apr-16 17:00N 17°25' W 062°11'3 5.0
2018-Apr-16 16:29N 17°23' W 062°09'3 5.7
2018-Apr-16 16:00N 17°21' W 062°07'3 5.7
2018-Apr-16 15:30N 17°19' W 062°05'3 6.0
2018-Apr-16 15:00N 17°17' W 062°02'3 6.5
2018-Apr-16 14:30N 17°15' W 061°60'3 6.1
2018-Apr-16 14:00N 17°13' W 061°58'3 6.3
2018-Apr-16 13:30N 17°10' W 061°55'3 5.2
2018-Apr-16 13:00N 17°08' W 061°54'1 0.1
2018-Apr-15 23:54N 17°08' W 061°53'0 0.0
2018-Apr-15 23:30N 17°08' W 061°53'0 0.0
2018-Apr-15 22:57N 17°08' W 061°53'0 0.0
2018-Apr-15 22:30N 17°08' W 061°53'0 0.0
2018-Apr-15 22:00N 17°08' W 061°53'0 0.0
2018-Apr-15 21:30N 17°08' W 061°53'0 0.0
2018-Apr-15 21:00N 17°08' W 061°53'0 0.0
2018-Apr-15 19:33N 17°08' W 061°53'0 0.0
2018-Apr-15 19:30N 17°08' W 061°53'0 0.0
2018-Apr-15 19:00N 17°08' W 061°53'0 0.0
2018-Apr-15 18:30N 17°08' W 061°53'0 0.0
2018-Apr-15 18:00N 17°08' W 061°53'0 0.0
2018-Apr-15 17:30N 17°08' W 061°53'0 0.0
2018-Apr-15 17:00N 17°08' W 061°53'0 0.0
2018-Apr-15 16:30N 17°08' W 061°53'0 0.0
2018-Apr-15 16:00N 17°08' W 061°53'0 0.0
2018-Apr-15 15:30N 17°08' W 061°53'0 0.0
2018-Apr-13 23:49N 17°08' W 061°53'0 0.8
2018-Apr-13 23:30N 17°08' W 061°53'2 0.6
2018-Apr-13 19:14N 17°07' W 061°51'0 0.0
2018-Apr-13 18:59N 17°07' W 061°51'0 0.0
2018-Apr-13 18:29N 17°07' W 061°51'0 0.0
2018-Apr-13 17:59N 17°07' W 061°51'0 0.0
2018-Apr-13 17:29N 17°07' W 061°51'2 3.6
2018-Apr-13 17:00N 17°08' W 061°52'1 0.0
2018-Apr-12 21:05N 17°08' W 061°53'0 0.1
2018-Apr-12 21:00N 17°08' W 061°53'2 3.5
2018-Apr-12 20:30N 17°06' W 061°55'2 4.0
2018-Apr-12 20:00N 17°05' W 061°54'  

Dump ship's entire track history